sensor_id;sensor_type;location;lat;lon;timestamp;pressure;altitude;pressure_sealevel;temperature
12854;BMP180;6495;51.808;7.478;2023-03-29T00:01:50;101243.00;;;6.10
12854;BMP180;6495;51.808;7.478;2023-03-29T00:04:40;101240.00;;;6.10
12854;BMP180;6495;51.808;7.478;2023-03-29T00:07:29;101236.00;;;6.10
12854;BMP180;6495;51.808;7.478;2023-03-29T00:10:21;101236.00;;;6.10
12854;BMP180;6495;51.808;7.478;2023-03-29T00:13:10;101225.00;;;6.10
12854;BMP180;6495;51.808;7.478;2023-03-29T00:15:58;101211.00;;;6.10
12854;BMP180;6495;51.808;7.478;2023-03-29T00:18:48;101206.00;;;6.10
12854;BMP180;6495;51.808;7.478;2023-03-29T00:21:39;101196.00;;;6.10
12854;BMP180;6495;51.808;7.478;2023-03-29T00:24:27;101202.00;;;6.20
12854;BMP180;6495;51.808;7.478;2023-03-29T00:27:16;101196.00;;;6.10
12854;BMP180;6495;51.808;7.478;2023-03-29T00:30:07;101200.00;;;6.10
12854;BMP180;6495;51.808;7.478;2023-03-29T00:32:56;101193.00;;;6.10
12854;BMP180;6495;51.808;7.478;2023-03-29T00:35:45;101195.00;;;6.00
12854;BMP180;6495;51.808;7.478;2023-03-29T00:38:36;101185.00;;;5.90
12854;BMP180;6495;51.808;7.478;2023-03-29T00:41:25;101176.00;;;5.90
12854;BMP180;6495;51.808;7.478;2023-03-29T00:44:59;101171.00;;;5.90
12854;BMP180;6495;51.808;7.478;2023-03-29T00:47:50;101176.00;;;5.90
12854;BMP180;6495;51.808;7.478;2023-03-29T00:50:47;101184.00;;;5.90
12854;BMP180;6495;51.808;7.478;2023-03-29T00:53:43;101171.00;;;5.90
12854;BMP180;6495;51.808;7.478;2023-03-29T00:56:37;101166.00;;;5.80
12854;BMP180;6495;51.808;7.478;2023-03-29T00:59:30;101171.00;;;5.90
12854;BMP180;6495;51.808;7.478;2023-03-29T01:02:27;101161.00;;;5.90
12854;BMP180;6495;51.808;7.478;2023-03-29T01:05:26;101161.00;;;5.90
12854;BMP180;6495;51.808;7.478;2023-03-29T01:08:23;101162.00;;;5.90
12854;BMP180;6495;51.808;7.478;2023-03-29T01:11:19;101148.00;;;5.80
12854;BMP180;6495;51.808;7.478;2023-03-29T01:14:13;101142.00;;;5.80
12854;BMP180;6495;51.808;7.478;2023-03-29T01:17:04;101146.00;;;5.80
12854;BMP180;6495;51.808;7.478;2023-03-29T01:20:00;101129.00;;;5.80
12854;BMP180;6495;51.808;7.478;2023-03-29T01:23:16;101135.00;;;5.80
12854;BMP180;6495;51.808;7.478;2023-03-29T01:26:20;101131.00;;;5.90
12854;BMP180;6495;51.808;7.478;2023-03-29T01:29:20;101119.00;;;5.80
12854;BMP180;6495;51.808;7.478;2023-03-29T01:32:16;101114.00;;;5.80
12854;BMP180;6495;51.808;7.478;2023-03-29T01:35:10;101113.00;;;5.80
12854;BMP180;6495;51.808;7.478;2023-03-29T01:38:05;101107.00;;;5.80
12854;BMP180;6495;51.808;7.478;2023-03-29T01:40:56;101104.00;;;5.80
12854;BMP180;6495;51.808;7.478;2023-03-29T01:43:49;101105.00;;;5.80
12854;BMP180;6495;51.808;7.478;2023-03-29T01:46:46;101099.00;;;5.80
12854;BMP180;6495;51.808;7.478;2023-03-29T01:49:39;101102.00;;;5.80
12854;BMP180;6495;51.808;7.478;2023-03-29T01:52:34;101096.00;;;5.80
12854;BMP180;6495;51.808;7.478;2023-03-29T01:55:27;101085.00;;;5.80
12854;BMP180;6495;51.808;7.478;2023-03-29T01:58:22;101083.00;;;5.80
12854;BMP180;6495;51.808;7.478;2023-03-29T02:01:19;101091.00;;;5.80
12854;BMP180;6495;51.808;7.478;2023-03-29T02:04:12;101086.00;;;5.80
12854;BMP180;6495;51.808;7.478;2023-03-29T02:07:07;101081.00;;;5.80
12854;BMP180;6495;51.808;7.478;2023-03-29T02:09:57;101077.00;;;5.80
12854;BMP180;6495;51.808;7.478;2023-03-29T02:12:46;101070.00;;;5.80
12854;BMP180;6495;51.808;7.478;2023-03-29T02:15:35;101071.00;;;5.80
12854;BMP180;6495;51.808;7.478;2023-03-29T02:18:23;101075.00;;;5.80
12854;BMP180;6495;51.808;7.478;2023-03-29T02:21:18;101074.00;;;5.80
12854;BMP180;6495;51.808;7.478;2023-03-29T02:24:12;101065.00;;;5.80
12854;BMP180;6495;51.808;7.478;2023-03-29T02:27:04;101069.00;;;5.80
12854;BMP180;6495;51.808;7.478;2023-03-29T02:29:54;101061.00;;;5.80
12854;BMP180;6495;51.808;7.478;2023-03-29T02:32:51;101056.00;;;5.80
12854;BMP180;6495;51.808;7.478;2023-03-29T02:35:45;101051.00;;;5.90
12854;BMP180;6495;51.808;7.478;2023-03-29T02:38:39;101048.00;;;5.80
12854;BMP180;6495;51.808;7.478;2023-03-29T02:41:28;101045.00;;;5.80
12854;BMP180;6495;51.808;7.478;2023-03-29T02:44:21;101043.00;;;5.80
12854;BMP180;6495;51.808;7.478;2023-03-29T02:47:17;101033.00;;;5.90
12854;BMP180;6495;51.808;7.478;2023-03-29T02:50:08;101035.00;;;5.80
12854;BMP180;6495;51.808;7.478;2023-03-29T02:53:01;101033.00;;;5.80
12854;BMP180;6495;51.808;7.478;2023-03-29T02:55:54;101034.00;;;5.80
12854;BMP180;6495;51.808;7.478;2023-03-29T02:58:42;101023.00;;;5.90
12854;BMP180;6495;51.808;7.478;2023-03-29T03:01:31;101025.00;;;5.90
12854;BMP180;6495;51.808;7.478;2023-03-29T03:04:21;101031.00;;;5.90
12854;BMP180;6495;51.808;7.478;2023-03-29T03:07:09;101014.00;;;5.90
12854;BMP180;6495;51.808;7.478;2023-03-29T03:09:58;101019.00;;;5.90
12854;BMP180;6495;51.808;7.478;2023-03-29T03:12:48;101016.00;;;5.80
12854;BMP180;6495;51.808;7.478;2023-03-29T03:15:37;101010.00;;;5.80
12854;BMP180;6495;51.808;7.478;2023-03-29T03:18:29;101007.00;;;5.90
12854;BMP180;6495;51.808;7.478;2023-03-29T03:21:17;101000.00;;;5.80
12854;BMP180;6495;51.808;7.478;2023-03-29T03:24:06;100995.00;;;5.80
12854;BMP180;6495;51.808;7.478;2023-03-29T03:26:55;100992.00;;;5.80
12854;BMP180;6495;51.808;7.478;2023-03-29T03:29:45;100997.00;;;5.90
12854;BMP180;6495;51.808;7.478;2023-03-29T03:32:37;100996.00;;;5.90
12854;BMP180;6495;51.808;7.478;2023-03-29T03:35:34;101004.00;;;6.00
12854;BMP180;6495;51.808;7.478;2023-03-29T03:38:26;100998.00;;;6.00
12854;BMP180;6495;51.808;7.478;2023-03-29T03:41:17;101002.00;;;6.10
12854;BMP180;6495;51.808;7.478;2023-03-29T03:44:06;100996.00;;;6.00
12854;BMP180;6495;51.808;7.478;2023-03-29T03:46:56;100999.00;;;6.00
12854;BMP180;6495;51.808;7.478;2023-03-29T03:49:45;100998.00;;;6.00
12854;BMP180;6495;51.808;7.478;2023-03-29T03:52:35;100996.00;;;6.00
12854;BMP180;6495;51.808;7.478;2023-03-29T03:55:25;100993.00;;;6.10
12854;BMP180;6495;51.808;7.478;2023-03-29T03:58:28;100995.00;;;6.10
12854;BMP180;6495;51.808;7.478;2023-03-29T04:01:16;100996.00;;;6.10
12854;BMP180;6495;51.808;7.478;2023-03-29T04:04:17;101002.00;;;6.10
12854;BMP180;6495;51.808;7.478;2023-03-29T04:07:31;100999.00;;;6.10
12854;BMP180;6495;51.808;7.478;2023-03-29T04:10:36;101004.00;;;6.10
12854;BMP180;6495;51.808;7.478;2023-03-29T04:13:32;100993.00;;;6.10
12854;BMP180;6495;51.808;7.478;2023-03-29T04:16:37;100995.00;;;6.10
12854;BMP180;6495;51.808;7.478;2023-03-29T04:19:47;100987.00;;;6.10
12854;BMP180;6495;51.808;7.478;2023-03-29T04:22:36;100988.00;;;6.20
12854;BMP180;6495;51.808;7.478;2023-03-29T04:25:25;100983.00;;;6.20
12854;BMP180;6495;51.808;7.478;2023-03-29T04:28:42;100979.00;;;6.20
12854;BMP180;6495;51.808;7.478;2023-03-29T04:31:47;100970.00;;;6.20
12854;BMP180;6495;51.808;7.478;2023-03-29T04:34:56;100985.00;;;6.20
12854;BMP180;6495;51.808;7.478;2023-03-29T04:37:44;100983.00;;;6.20
12854;BMP180;6495;51.808;7.478;2023-03-29T04:40:36;100973.00;;;6.30
12854;BMP180;6495;51.808;7.478;2023-03-29T04:43:31;100980.00;;;6.30
12854;BMP180;6495;51.808;7.478;2023-03-29T04:46:30;100970.00;;;6.30
12854;BMP180;6495;51.808;7.478;2023-03-29T04:49:39;100981.00;;;6.30
12854;BMP180;6495;51.808;7.478;2023-03-29T04:52:34;100980.00;;;6.30
12854;BMP180;6495;51.808;7.478;2023-03-29T04:55:24;100975.00;;;6.30
12854;BMP180;6495;51.808;7.478;2023-03-29T04:58:22;100982.00;;;6.40
12854;BMP180;6495;51.808;7.478;2023-03-29T05:01:16;100975.00;;;6.40
12854;BMP180;6495;51.808;7.478;2023-03-29T05:04:12;100972.00;;;6.50
12854;BMP180;6495;51.808;7.478;2023-03-29T05:07:14;100964.00;;;6.50
12854;BMP180;6495;51.808;7.478;2023-03-29T05:10:07;100968.00;;;6.40
12854;BMP180;6495;51.808;7.478;2023-03-29T05:12:56;100967.00;;;6.40
12854;BMP180;6495;51.808;7.478;2023-03-29T05:15:44;100968.00;;;6.50
12854;BMP180;6495;51.808;7.478;2023-03-29T05:18:34;100959.00;;;6.50
12854;BMP180;6495;51.808;7.478;2023-03-29T05:21:23;100958.00;;;6.40
12854;BMP180;6495;51.808;7.478;2023-03-29T05:24:16;100956.00;;;6.50
12854;BMP180;6495;51.808;7.478;2023-03-29T05:27:18;100960.00;;;6.50
12854;BMP180;6495;51.808;7.478;2023-03-29T05:30:19;100961.00;;;6.50
12854;BMP180;6495;51.808;7.478;2023-03-29T05:33:18;100960.00;;;6.50
12854;BMP180;6495;51.808;7.478;2023-03-29T05:36:09;100973.00;;;6.60
12854;BMP180;6495;51.808;7.478;2023-03-29T05:39:04;100959.00;;;6.60
12854;BMP180;6495;51.808;7.478;2023-03-29T05:41:54;100969.00;;;6.60
12854;BMP180;6495;51.808;7.478;2023-03-29T05:44:51;100965.00;;;6.60
12854;BMP180;6495;51.808;7.478;2023-03-29T05:47:40;100959.00;;;6.60
12854;BMP180;6495;51.808;7.478;2023-03-29T05:50:29;100963.00;;;6.60
12854;BMP180;6495;51.808;7.478;2023-03-29T05:53:22;100973.00;;;6.60
12854;BMP180;6495;51.808;7.478;2023-03-29T05:56:11;100978.00;;;6.60
12854;BMP180;6495;51.808;7.478;2023-03-29T05:59:02;100974.00;;;6.60
12854;BMP180;6495;51.808;7.478;2023-03-29T06:01:52;100970.00;;;6.60
12854;BMP180;6495;51.808;7.478;2023-03-29T06:04:41;100969.00;;;6.60
12854;BMP180;6495;51.808;7.478;2023-03-29T06:07:49;100967.00;;;6.60
12854;BMP180;6495;51.808;7.478;2023-03-29T06:10:57;100963.00;;;6.60
12854;BMP180;6495;51.808;7.478;2023-03-29T06:14:10;100962.00;;;6.60
12854;BMP180;6495;51.808;7.478;2023-03-29T06:17:06;100965.00;;;6.70
12854;BMP180;6495;51.808;7.478;2023-03-29T06:19:54;100969.00;;;6.70
12854;BMP180;6495;51.808;7.478;2023-03-29T06:22:45;100961.00;;;6.70
12854;BMP180;6495;51.808;7.478;2023-03-29T06:25:34;100953.00;;;6.70
12854;BMP180;6495;51.808;7.478;2023-03-29T06:28:24;100950.00;;;6.70
12854;BMP180;6495;51.808;7.478;2023-03-29T06:31:13;100946.00;;;6.70
12854;BMP180;6495;51.808;7.478;2023-03-29T06:34:04;100950.00;;;6.70
12854;BMP180;6495;51.808;7.478;2023-03-29T06:37:12;100950.00;;;6.80
12854;BMP180;6495;51.808;7.478;2023-03-29T06:40:00;100952.00;;;6.80
12854;BMP180;6495;51.808;7.478;2023-03-29T06:43:01;100952.00;;;6.80
12854;BMP180;6495;51.808;7.478;2023-03-29T06:46:12;100946.00;;;6.80
12854;BMP180;6495;51.808;7.478;2023-03-29T06:49:16;100953.00;;;6.90
12854;BMP180;6495;51.808;7.478;2023-03-29T06:52:18;100952.00;;;6.90
12854;BMP180;6495;51.808;7.478;2023-03-29T06:55:08;100954.00;;;7.00
12854;BMP180;6495;51.808;7.478;2023-03-29T06:57:58;100957.00;;;7.00
12854;BMP180;6495;51.808;7.478;2023-03-29T07:00:49;100960.00;;;7.10
12854;BMP180;6495;51.808;7.478;2023-03-29T07:03:46;100962.00;;;7.10
12854;BMP180;6495;51.808;7.478;2023-03-29T07:06:42;100968.00;;;7.10
12854;BMP180;6495;51.808;7.478;2023-03-29T07:09:35;100961.00;;;7.10
12854;BMP180;6495;51.808;7.478;2023-03-29T07:12:49;100964.00;;;7.20
12854;BMP180;6495;51.808;7.478;2023-03-29T07:15:39;100960.00;;;7.20
12854;BMP180;6495;51.808;7.478;2023-03-29T07:18:38;100960.00;;;7.20
12854;BMP180;6495;51.808;7.478;2023-03-29T07:21:28;100968.00;;;7.30
12854;BMP180;6495;51.808;7.478;2023-03-29T07:24:19;100972.00;;;7.30
12854;BMP180;6495;51.808;7.478;2023-03-29T07:27:08;100976.00;;;7.30
12854;BMP180;6495;51.808;7.478;2023-03-29T07:29:57;100983.00;;;7.40
12854;BMP180;6495;51.808;7.478;2023-03-29T07:32:46;100983.00;;;7.40
12854;BMP180;6495;51.808;7.478;2023-03-29T07:35:45;100987.00;;;7.50
12854;BMP180;6495;51.808;7.478;2023-03-29T07:38:34;100980.00;;;7.50
12854;BMP180;6495;51.808;7.478;2023-03-29T07:41:31;100990.00;;;7.60
12854;BMP180;6495;51.808;7.478;2023-03-29T07:44:26;100988.00;;;7.60
12854;BMP180;6495;51.808;7.478;2023-03-29T07:47:15;100991.00;;;7.70
12854;BMP180;6495;51.808;7.478;2023-03-29T07:50:06;100991.00;;;7.80
12854;BMP180;6495;51.808;7.478;2023-03-29T07:52:55;100995.00;;;7.80
12854;BMP180;6495;51.808;7.478;2023-03-29T07:55:44;101005.00;;;7.90
12854;BMP180;6495;51.808;7.478;2023-03-29T07:59:08;100998.00;;;8.00
12854;BMP180;6495;51.808;7.478;2023-03-29T08:01:59;100991.00;;;8.10
12854;BMP180;6495;51.808;7.478;2023-03-29T08:04:53;100993.00;;;8.10
12854;BMP180;6495;51.808;7.478;2023-03-29T08:08:01;100990.00;;;8.20
12854;BMP180;6495;51.808;7.478;2023-03-29T08:11:03;100987.00;;;8.30
12854;BMP180;6495;51.808;7.478;2023-03-29T08:14:02;100990.00;;;8.40
12854;BMP180;6495;51.808;7.478;2023-03-29T08:17:11;100985.00;;;8.50
12854;BMP180;6495;51.808;7.478;2023-03-29T08:20:10;100976.00;;;8.50
12854;BMP180;6495;51.808;7.478;2023-03-29T08:23:02;100980.00;;;8.60
12854;BMP180;6495;51.808;7.478;2023-03-29T08:26:13;100966.00;;;8.70
12854;BMP180;6495;51.808;7.478;2023-03-29T08:29:03;100976.00;;;8.70
12854;BMP180;6495;51.808;7.478;2023-03-29T08:31:52;100971.00;;;8.80
12854;BMP180;6495;51.808;7.478;2023-03-29T08:34:44;100960.00;;;8.80
12854;BMP180;6495;51.808;7.478;2023-03-29T08:37:56;100955.00;;;8.90
12854;BMP180;6495;51.808;7.478;2023-03-29T08:40:47;100965.00;;;9.00
12854;BMP180;6495;51.808;7.478;2023-03-29T08:43:59;100969.00;;;9.10
12854;BMP180;6495;51.808;7.478;2023-03-29T08:47:20;100981.00;;;9.20
12854;BMP180;6495;51.808;7.478;2023-03-29T08:50:12;100980.00;;;9.20
12854;BMP180;6495;51.808;7.478;2023-03-29T08:53:14;100989.00;;;9.30
12854;BMP180;6495;51.808;7.478;2023-03-29T08:56:27;100981.00;;;9.40
12854;BMP180;6495;51.808;7.478;2023-03-29T08:59:40;100980.00;;;9.50
12854;BMP180;6495;51.808;7.478;2023-03-29T09:02:34;100981.00;;;9.60
12854;BMP180;6495;51.808;7.478;2023-03-29T09:05:32;100990.00;;;9.70
12854;BMP180;6495;51.808;7.478;2023-03-29T09:08:46;100986.00;;;9.80
12854;BMP180;6495;51.808;7.478;2023-03-29T09:11:53;100985.00;;;9.80
12854;BMP180;6495;51.808;7.478;2023-03-29T09:15:01;100993.00;;;9.80
12854;BMP180;6495;51.808;7.478;2023-03-29T09:18:08;100984.00;;;9.90
12854;BMP180;6495;51.808;7.478;2023-03-29T09:21:12;100984.00;;;9.90
12854;BMP180;6495;51.808;7.478;2023-03-29T09:27:48;100973.00;;;10.10
12854;BMP180;6495;51.808;7.478;2023-03-29T09:30:54;100984.00;;;10.10
12854;BMP180;6495;51.808;7.478;2023-03-29T09:33:48;100982.00;;;10.20
12854;BMP180;6495;51.808;7.478;2023-03-29T09:36:51;100982.00;;;10.30
12854;BMP180;6495;51.808;7.478;2023-03-29T09:39:40;100978.00;;;10.30
12854;BMP180;6495;51.808;7.478;2023-03-29T09:42:32;100984.00;;;10.40
12854;BMP180;6495;51.808;7.478;2023-03-29T09:45:21;100985.00;;;10.50
12854;BMP180;6495;51.808;7.478;2023-03-29T09:48:13;100973.00;;;10.50
12854;BMP180;6495;51.808;7.478;2023-03-29T09:51:10;100986.00;;;10.40
12854;BMP180;6495;51.808;7.478;2023-03-29T09:54:01;100993.00;;;10.30
12854;BMP180;6495;51.808;7.478;2023-03-29T09:57:17;100993.00;;;10.30
12854;BMP180;6495;51.808;7.478;2023-03-29T10:00:08;100997.00;;;10.30
12854;BMP180;6495;51.808;7.478;2023-03-29T10:03:00;100990.00;;;10.30
12854;BMP180;6495;51.808;7.478;2023-03-29T10:06:01;100990.00;;;10.30
12854;BMP180;6495;51.808;7.478;2023-03-29T10:08:53;100988.00;;;10.40
12854;BMP180;6495;51.808;7.478;2023-03-29T10:11:53;100991.00;;;10.40
12854;BMP180;6495;51.808;7.478;2023-03-29T10:14:46;100989.00;;;10.50
12854;BMP180;6495;51.808;7.478;2023-03-29T10:17:39;100991.00;;;10.40
12854;BMP180;6495;51.808;7.478;2023-03-29T10:20:33;101017.00;;;10.40
12854;BMP180;6495;51.808;7.478;2023-03-29T10:23:22;100996.00;;;10.30
12854;BMP180;6495;51.808;7.478;2023-03-29T10:26:23;101004.00;;;10.40
12854;BMP180;6495;51.808;7.478;2023-03-29T10:29:16;101001.00;;;10.40
12854;BMP180;6495;51.808;7.478;2023-03-29T10:32:14;100998.00;;;10.40
12854;BMP180;6495;51.808;7.478;2023-03-29T10:35:11;101000.00;;;10.50
12854;BMP180;6495;51.808;7.478;2023-03-29T10:38:06;100994.00;;;10.50
12854;BMP180;6495;51.808;7.478;2023-03-29T10:41:04;100996.00;;;10.60
12854;BMP180;6495;51.808;7.478;2023-03-29T10:43:54;100992.00;;;10.60
12854;BMP180;6495;51.808;7.478;2023-03-29T10:46:44;100999.00;;;10.60
12854;BMP180;6495;51.808;7.478;2023-03-29T10:49:39;100998.00;;;10.60
12854;BMP180;6495;51.808;7.478;2023-03-29T10:52:29;100989.00;;;10.60
12854;BMP180;6495;51.808;7.478;2023-03-29T10:55:18;100983.00;;;10.60
12854;BMP180;6495;51.808;7.478;2023-03-29T10:58:26;100979.00;;;10.70
12854;BMP180;6495;51.808;7.478;2023-03-29T11:01:25;100968.00;;;10.70
12854;BMP180;6495;51.808;7.478;2023-03-29T11:04:28;100975.00;;;10.70
12854;BMP180;6495;51.808;7.478;2023-03-29T11:07:31;100976.00;;;10.70
12854;BMP180;6495;51.808;7.478;2023-03-29T11:10:38;100965.00;;;10.80
12854;BMP180;6495;51.808;7.478;2023-03-29T11:13:38;100978.00;;;10.80
12854;BMP180;6495;51.808;7.478;2023-03-29T11:16:38;100975.00;;;10.90
12854;BMP180;6495;51.808;7.478;2023-03-29T11:19:57;100969.00;;;10.90
12854;BMP180;6495;51.808;7.478;2023-03-29T11:23:03;100974.00;;;11.00
12854;BMP180;6495;51.808;7.478;2023-03-29T11:26:09;100959.00;;;11.10
12854;BMP180;6495;51.808;7.478;2023-03-29T11:29:07;100957.00;;;11.00
12854;BMP180;6495;51.808;7.478;2023-03-29T11:32:11;100960.00;;;11.10
12854;BMP180;6495;51.808;7.478;2023-03-29T11:35:20;100953.00;;;11.20
12854;BMP180;6495;51.808;7.478;2023-03-29T11:38:30;100946.00;;;11.30
12854;BMP180;6495;51.808;7.478;2023-03-29T11:41:30;100936.00;;;11.40
12854;BMP180;6495;51.808;7.478;2023-03-29T11:45:03;100949.00;;;11.50
12854;BMP180;6495;51.808;7.478;2023-03-29T11:47:57;100955.00;;;11.60
12854;BMP180;6495;51.808;7.478;2023-03-29T11:51:16;100950.00;;;11.70
12854;BMP180;6495;51.808;7.478;2023-03-29T11:54:22;100946.00;;;11.80
12854;BMP180;6495;51.808;7.478;2023-03-29T11:57:22;100956.00;;;11.80
12854;BMP180;6495;51.808;7.478;2023-03-29T12:00:20;100943.00;;;11.90
12854;BMP180;6495;51.808;7.478;2023-03-29T12:03:42;100935.00;;;12.00
12854;BMP180;6495;51.808;7.478;2023-03-29T12:07:04;100929.00;;;12.00
12854;BMP180;6495;51.808;7.478;2023-03-29T12:10:01;100927.00;;;12.10
12854;BMP180;6495;51.808;7.478;2023-03-29T12:13:23;100925.00;;;12.20
12854;BMP180;6495;51.808;7.478;2023-03-29T12:17:00;100918.00;;;12.30
12854;BMP180;6495;51.808;7.478;2023-03-29T12:20:10;100910.00;;;12.40
12854;BMP180;6495;51.808;7.478;2023-03-29T12:23:14;100911.00;;;12.40
12854;BMP180;6495;51.808;7.478;2023-03-29T12:26:13;100904.00;;;12.40
12854;BMP180;6495;51.808;7.478;2023-03-29T12:29:25;100899.00;;;12.40
12854;BMP180;6495;51.808;7.478;2023-03-29T12:32:37;100906.00;;;12.40
12854;BMP180;6495;51.808;7.478;2023-03-29T12:36:18;100906.00;;;12.50
12854;BMP180;6495;51.808;7.478;2023-03-29T12:39:27;100913.00;;;12.60
12854;BMP180;6495;51.808;7.478;2023-03-29T12:42:45;100898.00;;;12.60
12854;BMP180;6495;51.808;7.478;2023-03-29T12:45:57;100902.00;;;12.70
12854;BMP180;6495;51.808;7.478;2023-03-29T12:48:53;100902.00;;;12.80
12854;BMP180;6495;51.808;7.478;2023-03-29T12:51:43;100905.00;;;12.80
12854;BMP180;6495;51.808;7.478;2023-03-29T12:54:36;100902.00;;;12.90
12854;BMP180;6495;51.808;7.478;2023-03-29T12:57:38;100902.00;;;13.00
12854;BMP180;6495;51.808;7.478;2023-03-29T13:00:43;100888.00;;;13.10
12854;BMP180;6495;51.808;7.478;2023-03-29T13:03:46;100880.00;;;13.20
12854;BMP180;6495;51.808;7.478;2023-03-29T13:06:56;100873.00;;;13.30
12854;BMP180;6495;51.808;7.478;2023-03-29T13:09:53;100876.00;;;13.30
12854;BMP180;6495;51.808;7.478;2023-03-29T13:12:44;100874.00;;;13.30
12854;BMP180;6495;51.808;7.478;2023-03-29T13:15:36;100877.00;;;13.40
12854;BMP180;6495;51.808;7.478;2023-03-29T13:18:42;100880.00;;;13.40
12854;BMP180;6495;51.808;7.478;2023-03-29T13:21:49;100883.00;;;13.40
12854;BMP180;6495;51.808;7.478;2023-03-29T13:25:05;100881.00;;;13.40
12854;BMP180;6495;51.808;7.478;2023-03-29T13:28:04;100882.00;;;13.50
12854;BMP180;6495;51.808;7.478;2023-03-29T13:31:04;100891.00;;;13.40
12854;BMP180;6495;51.808;7.478;2023-03-29T13:38:02;100878.00;;;13.40
12854;BMP180;6495;51.808;7.478;2023-03-29T13:41:01;100874.00;;;13.50
12854;BMP180;6495;51.808;7.478;2023-03-29T13:48:27;100860.00;;;13.60
12854;BMP180;6495;51.808;7.478;2023-03-29T13:52:21;100853.00;;;13.70
12854;BMP180;6495;51.808;7.478;2023-03-29T13:55:47;100855.00;;;13.80
12854;BMP180;6495;51.808;7.478;2023-03-29T13:58:46;100847.00;;;13.90
12854;BMP180;6495;51.808;7.478;2023-03-29T14:01:42;100834.00;;;14.00
12854;BMP180;6495;51.808;7.478;2023-03-29T14:04:47;100846.00;;;14.00
12854;BMP180;6495;51.808;7.478;2023-03-29T14:07:40;100838.00;;;14.10
12854;BMP180;6495;51.808;7.478;2023-03-29T14:10:40;100832.00;;;14.20
12854;BMP180;6495;51.808;7.478;2023-03-29T14:13:30;100838.00;;;14.20
12854;BMP180;6495;51.808;7.478;2023-03-29T14:16:20;100833.00;;;14.20
12854;BMP180;6495;51.808;7.478;2023-03-29T14:19:15;100820.00;;;14.30
12854;BMP180;6495;51.808;7.478;2023-03-29T14:22:13;100819.00;;;14.40
12854;BMP180;6495;51.808;7.478;2023-03-29T14:25:11;100818.00;;;14.40
12854;BMP180;6495;51.808;7.478;2023-03-29T14:28:45;100803.00;;;14.40
12854;BMP180;6495;51.808;7.478;2023-03-29T14:31:40;100799.00;;;14.30
12854;BMP180;6495;51.808;7.478;2023-03-29T14:34:29;100791.00;;;14.30
12854;BMP180;6495;51.808;7.478;2023-03-29T14:37:25;100788.00;;;14.30
12854;BMP180;6495;51.808;7.478;2023-03-29T14:40:19;100796.00;;;14.30
12854;BMP180;6495;51.808;7.478;2023-03-29T14:43:08;100796.00;;;14.30
12854;BMP180;6495;51.808;7.478;2023-03-29T14:45:59;100797.00;;;14.30
12854;BMP180;6495;51.808;7.478;2023-03-29T14:48:51;100795.00;;;14.30
12854;BMP180;6495;51.808;7.478;2023-03-29T14:51:40;100785.00;;;14.30
12854;BMP180;6495;51.808;7.478;2023-03-29T14:54:32;100778.00;;;14.30
12854;BMP180;6495;51.808;7.478;2023-03-29T14:57:24;100775.00;;;14.40
12854;BMP180;6495;51.808;7.478;2023-03-29T15:00:26;100779.00;;;14.50
12854;BMP180;6495;51.808;7.478;2023-03-29T15:03:17;100773.00;;;14.50
12854;BMP180;6495;51.808;7.478;2023-03-29T15:06:11;100781.00;;;14.60
12854;BMP180;6495;51.808;7.478;2023-03-29T15:09:01;100783.00;;;14.60
12854;BMP180;6495;51.808;7.478;2023-03-29T15:11:57;100773.00;;;14.70
12854;BMP180;6495;51.808;7.478;2023-03-29T15:14:48;100769.00;;;14.80
12854;BMP180;6495;51.808;7.478;2023-03-29T15:17:40;100766.00;;;14.80
12854;BMP180;6495;51.808;7.478;2023-03-29T15:20:38;100758.00;;;14.80
12854;BMP180;6495;51.808;7.478;2023-03-29T15:23:37;100756.00;;;14.80
12854;BMP180;6495;51.808;7.478;2023-03-29T15:26:33;100751.00;;;14.80
12854;BMP180;6495;51.808;7.478;2023-03-29T15:29:22;100746.00;;;14.90
12854;BMP180;6495;51.808;7.478;2023-03-29T15:32:21;100746.00;;;14.90
12854;BMP180;6495;51.808;7.478;2023-03-29T15:35:21;100740.00;;;14.90
12854;BMP180;6495;51.808;7.478;2023-03-29T15:38:11;100729.00;;;15.00
12854;BMP180;6495;51.808;7.478;2023-03-29T15:41:02;100720.00;;;14.90
12854;BMP180;6495;51.808;7.478;2023-03-29T15:43:51;100716.00;;;14.90
12854;BMP180;6495;51.808;7.478;2023-03-29T15:46:40;100712.00;;;14.90
12854;BMP180;6495;51.808;7.478;2023-03-29T15:49:28;100709.00;;;14.90
12854;BMP180;6495;51.808;7.478;2023-03-29T15:52:17;100699.00;;;14.90
12854;BMP180;6495;51.808;7.478;2023-03-29T15:55:07;100701.00;;;14.90
12854;BMP180;6495;51.808;7.478;2023-03-29T15:57:57;100696.00;;;14.90
12854;BMP180;6495;51.808;7.478;2023-03-29T16:00:50;100695.00;;;14.90
12854;BMP180;6495;51.808;7.478;2023-03-29T16:03:40;100689.00;;;14.90
12854;BMP180;6495;51.808;7.478;2023-03-29T16:06:34;100682.00;;;14.90
12854;BMP180;6495;51.808;7.478;2023-03-29T16:09:23;100680.00;;;14.90
12854;BMP180;6495;51.808;7.478;2023-03-29T16:12:13;100677.00;;;15.00
12854;BMP180;6495;51.808;7.478;2023-03-29T16:15:12;100676.00;;;15.00
12854;BMP180;6495;51.808;7.478;2023-03-29T16:18:02;100683.00;;;14.90
12854;BMP180;6495;51.808;7.478;2023-03-29T16:20:51;100670.00;;;14.90
12854;BMP180;6495;51.808;7.478;2023-03-29T16:23:39;100674.00;;;14.90
12854;BMP180;6495;51.808;7.478;2023-03-29T16:26:30;100676.00;;;14.90
12854;BMP180;6495;51.808;7.478;2023-03-29T16:29:18;100672.00;;;15.00
12854;BMP180;6495;51.808;7.478;2023-03-29T16:32:09;100662.00;;;15.00
12854;BMP180;6495;51.808;7.478;2023-03-29T16:34:58;100656.00;;;15.00
12854;BMP180;6495;51.808;7.478;2023-03-29T16:37:46;100649.00;;;15.00
12854;BMP180;6495;51.808;7.478;2023-03-29T16:40:35;100643.00;;;15.00
12854;BMP180;6495;51.808;7.478;2023-03-29T16:43:24;100646.00;;;15.00
12854;BMP180;6495;51.808;7.478;2023-03-29T16:46:13;100641.00;;;15.00
12854;BMP180;6495;51.808;7.478;2023-03-29T16:49:03;100638.00;;;15.00
12854;BMP180;6495;51.808;7.478;2023-03-29T16:51:54;100649.00;;;15.10
12854;BMP180;6495;51.808;7.478;2023-03-29T16:54:43;100638.00;;;15.10
12854;BMP180;6495;51.808;7.478;2023-03-29T16:57:31;100634.00;;;15.00
12854;BMP180;6495;51.808;7.478;2023-03-29T17:00:21;100626.00;;;15.00
12854;BMP180;6495;51.808;7.478;2023-03-29T17:03:09;100617.00;;;15.00
12854;BMP180;6495;51.808;7.478;2023-03-29T17:06:00;100625.00;;;14.90
12854;BMP180;6495;51.808;7.478;2023-03-29T17:08:49;100628.00;;;14.80
12854;BMP180;6495;51.808;7.478;2023-03-29T17:11:38;100625.00;;;14.70
12854;BMP180;6495;51.808;7.478;2023-03-29T17:14:27;100624.00;;;14.70
12854;BMP180;6495;51.808;7.478;2023-03-29T17:17:16;100633.00;;;14.60
12854;BMP180;6495;51.808;7.478;2023-03-29T17:20:07;100615.00;;;14.60